Flight Track Log - Related Links

Times and Time Zones

All times are in EDT time to prevent confusion due to time zone crossing. See the KEN1511 flight status page for this flight to view local times or setup timezone preferences in your user account.


Time Position Orientation Groundspeed Altitude Reporting Facility
EDT Latitude Longitude Course Direction KTS MPH feet Rate Location/Type
Thu 06:23:09 PM 48.1372 -123.4725 91° East 144 166 1,700  Level Seattle Center
Thu 06:23:45 PM 48.1369 -123.4361 91° East 158 182 2,000 619 Climbing Seattle Center
Thu 06:24:46 PM 48.1375 -123.3661 89° East 163 188 2,700 645 Climbing Seattle Center
Thu 06:25:46 PM 48.1392 -123.3022 88° East 158 182 3,300 298 Climbing Seattle Center
Thu 06:26:47 PM 48.1289 -123.2347 103° East 171 197 3,300  Level Seattle Center
Thu 06:27:53 PM 48.1156 -123.1558 104° East 171 197 3,300  Level Seattle Center
Thu 06:28:03 PM 48.1142 -123.1444 100° East 171 197 3,300  Level Seattle Center
Thu 06:30:06 PM 48.0894 -123.0158 106° East 164 189 3,300  Level Seattle Center
Thu 06:30:55 PM 48.0764 -122.9653 111° Southeast 160 184 3,300  Level Seattle Center
Thu 06:31:07 PM 48.0731 -122.9539 114° Southeast 162 186 3,300  Level Seattle Center
Thu 06:31:56 PM 48.0575 -122.8997 113° Southeast 162 186 3,300  Level Seattle Center
Thu 06:32:08 PM 48.0564 -122.8914 101° East 162 186 3,300 -98 Level Seattle Center
Thu 06:32:57 PM 48.0417 -122.8367 112° Southeast 159 183 3,200 -197 Descending Seattle Center
Thu 06:33:09 PM 48.0394 -122.8294 115° Southeast 162 186 3,100 -247 Descending Seattle Center
Thu 06:34:10 PM 48.0139 -122.7733 124° Southeast 164 189 2,900 -150 Descending Seattle Center
Thu 06:34:29 PM 47.9972 -122.7550 144° Southeast 168 193 2,900  Level Seattle Center
Thu 06:35:12 PM 47.9778 -122.7311 141° Southeast 164 189 2,900 109 Level Seattle Center
Thu 06:35:24 PM 47.9656 -122.7164 141° Southeast 161 185 3,000 98 Climbing Seattle Center
Thu 06:36:13 PM 47.9361 -122.6881 147° Southeast 161 185 3,000 -98 Level Seattle Center
Thu 06:36:25 PM 47.9292 -122.6769 133° Southeast 159 183 2,900  Descending Seattle Center
Thu 06:37:14 PM 47.9011 -122.6497 147° Southeast 160 184 3,000 35 Climbing Seattle Center
Thu 06:39:16 PM 47.8281 -122.5711 146° Southeast 159 183 3,000 -45 Level Seattle Center
Thu 06:39:27 PM 47.8214 -122.5644 146° Southeast 156 180 2,900 -98 Descending Seattle Center
Thu 06:40:17 PM 47.7933 -122.5342 144° Southeast 156 180 2,900 98 Level Seattle Center
Thu 06:40:28 PM 47.7847 -122.5253 145° Southeast 158 182 3,000 -97 Climbing Seattle Center
Thu 06:41:19 PM 47.7536 -122.4986 150° Southeast 155 178 2,800 -268 Descending Seattle Center
Thu 06:42:20 PM 47.7161 -122.4647 149° Southeast 156 180 2,500 -361 Descending Seattle Center
Thu 06:44:22 PM 47.6419 -122.3975 149° Southeast 156 180 1,700 -409 Descending Seattle Center
Thu 06:44:32 PM 47.6361 -122.3933 154° Southeast 156 180 1,600 -338 Descending Seattle Center
Thu 06:45:33 PM 47.5964 -122.3592 150° Southeast 157 181 1,300 -425 Descending Seattle Center
Thu 06:46:25 PM 47.5667 -122.3342 150° Southeast 146 168 800 -584 Descending Seattle Center
Thu 06:47:26 PM 47.5350 -122.3072 150° Southeast 138 159 200 -590 Descending Seattle Center
Thu 06:49:00 PM 47.5300 -122.3020 146° Southeast  Level Estimated
Thu 06:56:00 PM 47.5300 -122.3020 146° Southeast  Level Estimated
Thu 06:57:00 PM 47.5300 -122.3020 174° South  Level Estimated
Thu 06:58:00 PM 47.5300 -122.3020 146° Southeast  Level Estimated
Thu 06:59:00 PM 47.5300 -122.3020 174° South  Level Estimated
Thu 07:00:00 PM 47.5300 -122.3020 146° Southeast  Level Estimated
Thu 07:01:00 PM 47.5300 -122.3020 174° South  Level Estimated
Thu 07:02:00 PM 47.5300 -122.3020 146° Southeast  Level Estimated
Thu 07:03:00 PM 47.5300 -122.3020 174° South  Level Estimated

Login

Don't have an account? Register now (free) for customized features, flight alerts, and more!